createdAt,value
2022-08-11T00:00:13.870Z,99008.56
2022-08-11T00:02:46.821Z,99004.69
2022-08-11T00:05:15.714Z,99003.25
2022-08-11T00:07:45.385Z,99002.59
2022-08-11T00:10:15.071Z,98998.31
2022-08-11T00:12:43.796Z,98994.91
2022-08-11T00:15:11.600Z,98996.41
2022-08-11T00:17:39.378Z,99005.94
2022-08-11T00:20:16.316Z,98999.94
2022-08-11T00:22:46.337Z,99012.16
2022-08-11T00:25:20.789Z,98994.56
2022-08-11T00:27:49.029Z,98994.56
2022-08-11T00:30:16.393Z,98978.47
2022-08-11T00:32:46.268Z,98992.25
2022-08-11T00:35:52.534Z,98988.34
2022-08-11T00:38:03.792Z,98985.31
2022-08-11T00:40:51.840Z,98995.56
2022-08-11T00:43:50.394Z,98984.47
2022-08-11T00:46:23.258Z,98982.63
2022-08-11T00:49:12.146Z,98984.91
2022-08-11T00:52:04.953Z,98983.38
2022-08-11T00:54:50.631Z,98977.16
2022-08-11T00:57:38.736Z,98985.00
2022-08-11T01:00:22.699Z,98981.44
2022-08-11T01:03:34.600Z,98987.09
2022-08-11T01:06:37.072Z,98978.88
2022-08-11T01:09:41.401Z,98984.03
2022-08-11T01:12:36.399Z,98978.91
2022-08-11T01:15:24.462Z,98974.75
2022-08-11T01:18:17.028Z,98982.09
2022-08-11T01:21:08.781Z,98972.94
2022-08-11T01:24:09.600Z,98976.84
2022-08-11T01:27:00.823Z,98983.81
2022-08-11T01:30:01.616Z,98974.16
2022-08-11T01:32:31.198Z,98970.84
2022-08-11T01:34:57.756Z,98980.75
2022-08-11T01:37:57.520Z,98971.31
2022-08-11T01:40:50.153Z,98972.81
2022-08-11T01:43:47.592Z,98971.81
2022-08-11T01:46:31.464Z,98974.28
2022-08-11T01:49:58.513Z,98967.44
2022-08-11T01:52:33.642Z,98963.78
2022-08-11T01:55:26.858Z,98968.91
2022-08-11T01:58:43.179Z,98964.25
2022-08-11T02:01:34.605Z,98961.06
2022-08-11T02:04:17.193Z,98966.81
2022-08-11T02:07:02.597Z,98962.66
2022-08-11T02:09:29.141Z,98964.00
2022-08-11T02:12:08.741Z,98958.63
2022-08-11T02:15:04.445Z,98953.25
2022-08-11T02:17:54.785Z,98960.34
2022-08-11T02:20:56.123Z,98959.47
2022-08-11T02:24:05.706Z,98960.34
2022-08-11T02:26:30.499Z,98960.34
2022-08-11T02:29:10.482Z,98956.53
2022-08-11T02:32:10.930Z,98964.22
2022-08-11T02:35:00.045Z,98959.84
2022-08-11T02:37:32.986Z,98961.06
2022-08-11T02:39:59.570Z,98956.19
2022-08-11T02:42:44.912Z,98956.28
2022-08-11T02:45:42.099Z,98944.59
2022-08-11T02:48:39.417Z,98955.97
2022-08-11T02:51:27.481Z,98956.19
2022-08-11T02:54:09.870Z,98955.81
2022-08-11T02:56:52.357Z,98957.06
2022-08-11T02:59:46.568Z,98942.28
2022-08-11T03:02:41.274Z,98951.81
2022-08-11T03:05:12.064Z,98945.06
2022-08-11T03:08:09.702Z,98949.84
2022-08-11T03:11:23.323Z,98961.06
2022-08-11T03:14:40.685Z,98955.06
2022-08-11T03:17:42.028Z,98958.13
2022-08-11T03:20:46.550Z,98952.66
2022-08-11T03:23:39.065Z,98963.75
2022-08-11T03:26:57.756Z,98959.34
2022-08-11T03:29:37.451Z,98954.59
2022-08-11T03:32:21.869Z,98949.81
2022-08-11T03:34:50.710Z,98956.16
2022-08-11T03:37:53.367Z,98953.84
2022-08-11T03:40:45.916Z,98957.50
2022-08-11T03:43:18.450Z,98957.75
2022-08-11T03:46:06.466Z,98969.34
2022-08-11T03:48:49.497Z,98957.00
2022-08-11T03:51:26.215Z,98965.91
2022-08-11T03:54:36.382Z,98956.38
2022-08-11T03:57:34.976Z,98963.22
2022-08-11T04:00:10.213Z,98969.44
2022-08-11T04:02:42.543Z,98968.13
2022-08-11T04:05:33.434Z,98963.84
2022-08-11T04:08:42.073Z,98967.50
2022-08-11T04:12:01.918Z,98972.88
2022-08-11T04:15:13.221Z,98969.59
2022-08-11T04:17:57.741Z,98961.63
2022-08-11T04:20:29.988Z,98969.69
2022-08-11T04:24:36.635Z,98967.38
2022-08-11T04:26:50.866Z,98962.66
2022-08-11T04:30:02.201Z,98972.03
2022-08-11T04:32:31.875Z,98965.06
2022-08-11T04:35:18.460Z,98976.91
2022-08-11T04:38:00.339Z,98974.75
2022-08-11T04:40:48.571Z,98965.59
2022-08-11T04:43:25.077Z,98974.00
2022-08-11T04:46:03.573Z,98974.50
2022-08-11T04:49:13.529Z,98978.28
2022-08-11T04:52:38.542Z,98970.09
2022-08-11T04:55:57.353Z,98974.13
2022-08-11T04:59:01.375Z,98978.19
2022-08-11T05:02:05.394Z,98975.47
2022-08-11T05:05:14.496Z,98972.94
2022-08-11T05:08:23.837Z,98980.63
2022-08-11T05:11:05.971Z,98977.28
2022-08-11T05:13:55.048Z,98983.50
2022-08-11T05:16:48.147Z,98981.28
2022-08-11T05:19:38.880Z,98986.25
2022-08-11T05:22:30.501Z,98992.72
2022-08-11T05:26:43.290Z,98978.72
2022-08-11T05:28:49.467Z,98991.31
2022-08-11T05:31:36.524Z,98993.31
2022-08-11T05:34:55.783Z,98993.72
2022-08-11T05:37:27.224Z,99000.00
2022-08-11T05:40:16.146Z,98984.53
2022-08-11T05:43:08.178Z,98996.34
2022-08-11T05:46:02.543Z,98991.81
2022-08-11T05:48:54.593Z,98997.25
2022-08-11T05:51:52.439Z,99001.03
2022-08-11T05:54:46.106Z,98987.53
2022-08-11T05:57:50.430Z,98991.28
2022-08-11T06:00:10.376Z,98976.63
2022-08-11T06:02:44.633Z,98985.41
2022-08-11T06:05:12.439Z,98988.81
2022-08-11T06:07:48.832Z,98983.66
2022-08-11T06:10:27.233Z,98995.47
2022-08-11T06:12:56.032Z,98982.53
2022-08-11T06:15:24.592Z,98982.28
2022-08-11T06:17:52.021Z,98985.03
2022-08-11T06:20:19.750Z,98985.81
2022-08-11T06:22:55.772Z,98976.97
2022-08-11T06:25:24.102Z,98961.00
2022-08-11T06:27:58.783Z,98961.56
2022-08-11T06:30:42.557Z,98955.09
2022-08-11T06:33:21.484Z,98965.81
2022-08-11T06:36:11.126Z,98950.16
2022-08-11T06:39:00.454Z,98979.22
2022-08-11T06:41:44.652Z,98976.16
2022-08-11T06:44:14.220Z,98965.25
2022-08-11T06:46:53.263Z,98955.47
2022-08-11T06:49:50.753Z,98963.03
2022-08-11T06:52:35.950Z,98952.97
2022-08-11T06:55:56.113Z,98949.25
2022-08-11T06:58:22.689Z,98951.13
2022-08-11T07:00:54.370Z,98948.69
2022-08-11T07:03:22.305Z,98943.56
2022-08-11T07:06:19.219Z,98951.75
2022-08-11T07:09:21.814Z,98945.50
2022-08-11T07:12:33.653Z,98934.97
2022-08-11T07:15:22.361Z,98939.03
2022-08-11T07:18:15.612Z,98934.97
2022-08-11T07:21:02.294Z,98944.59
2022-08-11T07:24:00.527Z,98938.47
2022-08-11T07:26:46.367Z,98936.72
2022-08-11T07:29:14.578Z,98943.56
2022-08-11T07:31:50.123Z,98930.63
2022-08-11T07:34:23.106Z,98924.75
2022-08-11T07:36:53.632Z,98944.97
2022-08-11T07:39:33.318Z,98937.09
2022-08-11T07:42:06.833Z,98935.78
2022-08-11T07:44:55.086Z,98945.22
2022-08-11T07:47:41.562Z,98940.25
2022-08-11T07:50:28.359Z,98936.84
2022-08-11T07:52:56.593Z,98934.63
2022-08-11T07:55:49.565Z,98931.31
2022-08-11T07:58:44.884Z,98939.69
2022-08-11T08:01:38.609Z,98924.19
2022-08-11T08:04:25.865Z,98926.03
2022-08-11T08:07:11.923Z,98938.22
2022-08-11T08:09:57.724Z,98930.16
2022-08-11T08:12:44.284Z,98939.84
2022-08-11T08:15:31.516Z,98940.56
2022-08-11T08:18:09.440Z,98934.81
2022-08-11T08:20:50.676Z,98930.34
2022-08-11T08:23:34.138Z,98937.56
2022-08-11T08:26:04.562Z,98921.72
2022-08-11T08:28:32.966Z,98917.56
2022-08-11T08:31:00.286Z,98927.25
2022-08-11T08:33:29.434Z,98929.88
2022-08-11T08:36:15.533Z,98943.59
2022-08-11T08:38:47.294Z,98933.78
2022-08-11T08:41:19.986Z,98922.72
2022-08-11T08:43:51.481Z,98928.75
2022-08-11T08:46:25.553Z,98915.13
2022-08-11T08:48:53.388Z,98910.97
2022-08-11T08:52:02.411Z,98908.13
2022-08-11T08:54:44.609Z,98905.56
2022-08-11T08:57:13.287Z,98904.44
2022-08-11T08:59:48.733Z,98905.38
2022-08-11T09:02:33.652Z,98908.66
2022-08-11T09:05:04.117Z,98903.00
2022-08-11T09:07:38.867Z,98900.09
2022-08-11T09:10:07.715Z,98889.34
2022-08-11T09:12:38.817Z,98903.44
2022-08-11T09:15:09.157Z,98897.81
2022-08-11T09:17:41.424Z,98895.41
2022-08-11T09:20:25.802Z,98894.72
2022-08-11T09:26:21.538Z,98881.06
2022-08-11T09:28:51.701Z,98869.53
2022-08-11T09:31:22.809Z,98881.66
2022-08-11T09:33:53.909Z,98878.69
2022-08-11T09:36:39.726Z,98866.34
2022-08-11T09:39:25.713Z,98876.97
2022-08-11T09:42:01.156Z,98882.53
2022-08-11T09:44:50.130Z,98867.97
2022-08-11T09:47:25.556Z,98887.50
2022-08-11T09:50:03.302Z,98882.44
2022-08-11T09:52:34.608Z,98879.50
2022-08-11T09:55:01.760Z,98862.81
2022-08-11T09:57:47.870Z,98852.03
2022-08-11T10:00:15.269Z,98856.72
2022-08-11T10:02:45.384Z,98848.91
2022-08-11T10:05:33.954Z,98862.16
2022-08-11T10:08:01.621Z,98848.09
2022-08-11T10:10:29.550Z,98845.06
2022-08-11T10:13:05.375Z,98857.31
2022-08-11T10:16:03.550Z,98852.53
2022-08-11T10:18:49.285Z,98845.91
2022-08-11T10:21:28.287Z,98861.28
2022-08-11T10:24:17.087Z,98847.16
2022-08-11T10:26:50.750Z,98844.19
2022-08-11T10:29:44.305Z,98836.25
2022-08-11T10:32:32.893Z,98838.34
2022-08-11T10:35:09.285Z,98840.69
2022-08-11T10:38:06.806Z,98842.47
2022-08-11T10:40:25.710Z,98828.47
2022-08-11T10:43:03.130Z,98823.88
2022-08-11T10:45:50.633Z,98826.09
2022-08-11T10:48:21.229Z,98823.06
2022-08-11T10:51:08.895Z,98826.59
2022-08-11T10:53:56.542Z,98815.22
2022-08-11T10:56:41.848Z,98806.53
2022-08-11T10:59:10.235Z,98815.38
2022-08-11T11:01:44.141Z,98805.28
2022-08-11T11:04:17.298Z,98812.44
2022-08-11T11:07:13.773Z,98805.88
2022-08-11T11:10:04.998Z,98818.63
2022-08-11T11:13:05.231Z,98804.03
2022-08-11T11:15:53.465Z,98789.31
2022-08-11T11:18:28.783Z,98802.06
2022-08-11T11:21:06.794Z,98794.44
2022-08-11T11:23:57.684Z,98796.91
2022-08-11T11:26:34.316Z,98785.13
2022-08-11T11:29:11.527Z,98784.06
2022-08-11T11:31:53.843Z,98780.94
2022-08-11T11:34:26.323Z,98773.97
2022-08-11T11:36:58.596Z,98762.69
2022-08-11T11:39:31.935Z,98763.72
2022-08-11T11:42:04.346Z,98757.66
2022-08-11T11:44:32.238Z,98761.75
2022-08-11T11:47:01.223Z,98766.69
2022-08-11T11:49:29.847Z,98760.97
2022-08-11T11:51:57.880Z,98760.25
2022-08-11T11:54:34.376Z,98764.25
2022-08-11T11:57:22.295Z,98753.13
2022-08-11T12:00:09.915Z,98757.09
2022-08-11T12:02:37.908Z,98752.06
2022-08-11T12:05:06.194Z,98755.31
2022-08-11T12:08:07.082Z,98747.69
2022-08-11T12:10:49.246Z,98750.00
2022-08-11T12:13:36.669Z,98755.00
2022-08-11T12:16:33.023Z,98751.63
2022-08-11T12:18:56.579Z,98754.38
2022-08-11T12:21:24.587Z,98749.91
2022-08-11T12:24:10.471Z,98743.00
2022-08-11T12:27:16.345Z,98731.06
2022-08-11T12:29:45.305Z,98746.41
2022-08-11T12:32:12.228Z,98729.97
2022-08-11T12:34:38.991Z,98713.16
2022-08-11T12:37:13.047Z,98738.78
2022-08-11T12:40:16.199Z,98728.13
2022-08-11T12:43:21.238Z,98724.78
2022-08-11T12:45:54.243Z,98719.53
2022-08-11T12:48:58.518Z,98722.31
2022-08-11T12:52:12.417Z,98712.50
2022-08-11T12:54:40.031Z,98710.03
2022-08-11T12:57:45.946Z,98697.41
2022-08-11T13:00:32.836Z,98703.50
2022-08-11T13:03:19.071Z,98700.38
2022-08-11T13:05:47.930Z,98708.72
2022-08-11T13:08:16.549Z,98700.00
2022-08-11T13:11:03.467Z,98702.50
2022-08-11T13:13:54.948Z,98698.41
2022-08-11T13:16:21.063Z,98698.09
2022-08-11T13:18:48.655Z,98697.72
2022-08-11T13:21:20.418Z,98685.41
2022-08-11T13:23:59.413Z,98687.72
2022-08-11T13:26:46.713Z,98691.97
2022-08-11T13:29:22.451Z,98699.16
2022-08-11T13:31:50.379Z,98692.06
2022-08-11T13:34:19.735Z,98691.78
2022-08-11T13:36:54.762Z,98698.06
2022-08-11T13:39:27.357Z,98696.28
2022-08-11T13:41:57.332Z,98686.88
2022-08-11T13:44:29.759Z,98689.81
2022-08-11T13:47:01.137Z,98671.00
2022-08-11T13:49:29.258Z,98685.91
2022-08-11T13:51:57.292Z,98687.84
2022-08-11T13:54:31.774Z,98686.16
2022-08-11T13:57:03.207Z,98676.78
2022-08-11T13:59:45.297Z,98674.50
2022-08-11T14:02:29.270Z,98666.81
2022-08-11T14:05:12.001Z,98666.16
2022-08-11T14:07:44.229Z,98673.56
2022-08-11T14:10:13.957Z,98672.66
2022-08-11T14:13:06.282Z,98676.41
2022-08-11T14:15:35.134Z,98662.28
2022-08-11T14:18:08.297Z,98667.94
2022-08-11T14:20:58.426Z,98661.78
2022-08-11T14:23:31.321Z,98675.09
2022-08-11T14:26:17.247Z,98677.06
2022-08-11T14:28:45.458Z,98673.47
2022-08-11T14:31:15.563Z,98669.44
2022-08-11T14:33:59.528Z,98659.88
2022-08-11T14:36:36.865Z,98663.25
2022-08-11T14:39:08.348Z,98666.81
2022-08-11T14:42:11.287Z,98668.41
2022-08-11T14:45:12.528Z,98652.63
2022-08-11T14:47:42.105Z,98664.25
2022-08-11T14:50:14.060Z,98662.84
2022-08-11T14:52:55.178Z,98660.59
2022-08-11T14:55:44.989Z,98666.31
2022-08-11T14:58:15.962Z,98651.69
2022-08-11T15:00:43.807Z,98650.09
2022-08-11T15:03:14.219Z,98655.84
2022-08-11T15:05:58.318Z,98653.38
2022-08-11T15:08:57.740Z,98670.09
2022-08-11T15:11:48.144Z,98662.44
2022-08-11T15:14:35.210Z,98658.19
2022-08-11T15:17:08.143Z,98659.03
2022-08-11T15:19:40.693Z,98663.72
2022-08-11T15:22:28.705Z,98654.00
2022-08-11T15:24:57.807Z,98664.94
2022-08-11T15:27:44.670Z,98655.50
2022-08-11T15:30:32.990Z,98646.63
2022-08-11T15:33:24.464Z,98654.19
2022-08-11T15:36:11.536Z,98657.19
2022-08-11T15:38:44.514Z,98657.06
2022-08-11T15:41:36.039Z,98655.28
2022-08-11T15:44:44.462Z,98655.03
2022-08-11T15:47:14.394Z,98647.53
2022-08-11T15:50:11.779Z,98650.03
2022-08-11T15:52:34.704Z,98644.41
2022-08-11T15:55:06.256Z,98648.53
2022-08-11T15:57:55.980Z,98643.69
2022-08-11T16:00:41.639Z,98635.75
2022-08-11T16:03:54.421Z,98644.56
2022-08-11T16:06:16.016Z,98635.78
2022-08-11T16:08:44.954Z,98649.22
2022-08-11T16:11:12.475Z,98633.06
2022-08-11T16:13:40.478Z,98630.06
2022-08-11T16:16:16.278Z,98636.34
2022-08-11T16:18:56.949Z,98636.00
2022-08-11T16:21:35.214Z,98638.38
2022-08-11T16:24:09.532Z,98645.41
2022-08-11T16:27:09.080Z,98639.69
2022-08-11T16:29:46.503Z,98648.91
2022-08-11T16:32:17.384Z,98640.78
2022-08-11T16:35:11.684Z,98642.19
2022-08-11T16:37:59.008Z,98624.94
2022-08-11T16:40:26.391Z,98649.03
2022-08-11T16:43:13.260Z,98635.84
2022-08-11T16:46:00.271Z,98651.44
2022-08-11T16:48:36.520Z,98648.91
2022-08-11T16:51:08.532Z,98637.22
2022-08-11T16:54:03.593Z,98645.34
2022-08-11T16:56:34.146Z,98639.75
2022-08-11T16:59:16.012Z,98629.56
2022-08-11T17:01:55.847Z,98630.94
2022-08-11T17:05:09.200Z,98646.38
2022-08-11T17:07:57.189Z,98639.03
2022-08-11T17:10:53.718Z,98646.00
2022-08-11T17:13:29.781Z,98641.75
2022-08-11T17:16:07.466Z,98646.47
2022-08-11T17:18:51.464Z,98652.22
2022-08-11T17:21:26.370Z,98654.31
2022-08-11T17:24:08.425Z,98683.31
2022-08-11T17:26:56.672Z,98679.97
2022-08-11T17:29:31.294Z,98682.31
2022-08-11T17:32:19.422Z,98685.31
2022-08-11T17:35:06.307Z,98697.94
2022-08-11T17:37:35.484Z,98700.47
2022-08-11T17:40:06.988Z,98691.59
2022-08-11T17:42:53.443Z,98710.47
2022-08-11T17:46:01.074Z,98695.88
2022-08-11T17:48:33.773Z,98696.72
2022-08-11T17:51:07.473Z,98686.78
2022-08-11T17:54:24.065Z,98712.84
2022-08-11T17:57:20.154Z,98711.44
2022-08-11T17:59:53.010Z,98705.34
2022-08-11T18:02:44.096Z,98705.66
2022-08-11T18:05:13.733Z,98721.00
2022-08-11T18:08:01.522Z,98718.47
2022-08-11T18:10:49.673Z,98713.50
2022-08-11T18:13:42.936Z,98716.63
2022-08-11T18:16:28.950Z,98713.50
2022-08-11T18:19:14.022Z,98714.94
2022-08-11T18:22:15.674Z,98715.91
2022-08-11T18:25:12.309Z,98708.69
2022-08-11T18:28:02.099Z,98715.34
2022-08-11T18:30:51.612Z,98715.47
2022-08-11T18:34:07.997Z,98713.22
2022-08-11T18:36:49.706Z,98712.22
2022-08-11T18:39:40.679Z,98723.28
2022-08-11T18:42:33.063Z,98694.16
2022-08-11T18:45:23.429Z,98703.50
2022-08-11T18:48:19.694Z,98729.50
2022-08-11T18:51:30.055Z,98725.53
2022-08-11T18:54:18.967Z,98731.34
2022-08-11T18:57:05.828Z,98723.72
2022-08-11T18:59:56.515Z,98728.22
2022-08-11T19:02:49.328Z,98739.59
2022-08-11T19:06:08.327Z,98733.75
2022-08-11T19:08:47.029Z,98736.75
2022-08-11T19:11:33.201Z,98729.66
2022-08-11T19:14:21.004Z,98729.22
2022-08-11T19:17:08.327Z,98738.72
2022-08-11T19:19:56.610Z,98733.47
2022-08-11T19:22:43.608Z,98723.78
2022-08-11T19:25:30.897Z,98735.28
2022-08-11T19:28:17.108Z,98730.16
2022-08-11T19:31:03.084Z,98730.00
2022-08-11T19:34:00.668Z,98726.59
2022-08-11T19:36:56.452Z,98734.22
2022-08-11T19:39:41.837Z,98730.09
2022-08-11T19:42:28.054Z,98722.44
2022-08-11T19:45:14.581Z,98730.38
2022-08-11T19:48:28.003Z,98720.88
2022-08-11T19:51:06.103Z,98731.63
2022-08-11T19:53:53.300Z,98719.28
2022-08-11T19:56:39.975Z,98732.72
2022-08-11T19:59:26.278Z,98728.72
2022-08-11T20:02:13.480Z,98733.94
2022-08-11T20:05:00.466Z,98730.72
2022-08-11T20:07:46.954Z,98730.00
2022-08-11T20:10:35.760Z,98731.13
2022-08-11T20:13:22.275Z,98729.00
2022-08-11T20:16:09.854Z,98723.13
2022-08-11T20:18:56.773Z,98725.50
2022-08-11T20:21:44.180Z,98724.06
2022-08-11T20:24:31.030Z,98726.06
2022-08-11T20:27:19.023Z,98716.66
2022-08-11T20:30:10.455Z,98724.63
2022-08-11T20:32:57.147Z,98727.69
2022-08-11T20:35:43.114Z,98724.81
2022-08-11T20:38:30.033Z,98738.56
2022-08-11T20:41:16.059Z,98723.03
2022-08-11T20:44:06.875Z,98730.81
2022-08-11T20:46:57.000Z,98727.75
2022-08-11T20:49:53.718Z,98731.88
2022-08-11T20:52:47.470Z,98737.50
2022-08-11T20:55:46.081Z,98736.25
2022-08-11T20:59:13.258Z,98725.19
2022-08-11T21:01:45.465Z,98740.78
2022-08-11T21:04:32.524Z,98706.94
2022-08-11T21:07:27.690Z,98738.75
2022-08-11T21:10:22.801Z,98743.16
2022-08-11T21:13:25.358Z,98742.88
2022-08-11T21:16:25.704Z,98744.44
2022-08-11T21:19:59.941Z,98711.56
2022-08-11T21:22:59.590Z,98745.34
2022-08-11T21:26:06.289Z,98750.13
2022-08-11T21:28:54.639Z,98752.06
2022-08-11T21:31:40.210Z,98750.84
2022-08-11T21:34:28.872Z,98727.13
2022-08-11T21:37:15.827Z,98756.97
2022-08-11T21:40:03.619Z,98754.28
2022-08-11T21:42:52.825Z,98744.75
2022-08-11T21:45:40.207Z,98752.69
2022-08-11T21:48:27.691Z,98758.13
2022-08-11T21:51:12.725Z,98753.13
2022-08-11T21:53:58.585Z,98761.41
2022-08-11T21:56:45.872Z,98761.78
2022-08-11T21:59:36.725Z,98760.97
2022-08-11T22:02:21.999Z,98770.00
2022-08-11T22:05:07.668Z,98760.72
2022-08-11T22:07:52.886Z,98753.44
2022-08-11T22:10:41.116Z,98744.69
2022-08-11T22:13:30.055Z,98764.91
2022-08-11T22:16:15.866Z,98746.38
2022-08-11T22:19:01.790Z,98748.97
2022-08-11T22:22:01.233Z,98752.00
2022-08-11T22:24:50.777Z,98739.81
2022-08-11T22:27:36.160Z,98750.41
2022-08-11T22:30:22.001Z,98755.44
2022-08-11T22:33:06.979Z,98749.06
2022-08-11T22:35:53.797Z,98748.09
2022-08-11T22:38:40.883Z,98739.31
2022-08-11T22:41:25.933Z,98733.69
2022-08-11T22:44:10.966Z,98724.69
2022-08-11T22:46:56.311Z,98724.78
2022-08-11T22:49:57.942Z,98727.94
2022-08-11T22:52:44.971Z,98732.72
2022-08-11T22:55:31.824Z,98719.53
2022-08-11T22:58:17.627Z,98736.00
2022-08-11T23:01:03.507Z,98743.66
2022-08-11T23:03:50.689Z,98731.81
2022-08-11T23:06:37.728Z,98734.22
2022-08-11T23:09:23.822Z,98737.41
2022-08-11T23:12:10.713Z,98732.53
2022-08-11T23:14:58.946Z,98734.78
2022-08-11T23:17:45.600Z,98730.41
2022-08-11T23:20:44.939Z,98727.72
2022-08-11T23:23:35.773Z,98722.59
2022-08-11T23:26:22.503Z,98715.28
2022-08-11T23:29:07.900Z,98720.13
2022-08-11T23:31:54.888Z,98721.50
2022-08-11T23:35:36.985Z,98717.91
2022-08-11T23:37:59.776Z,98713.81
2022-08-11T23:40:45.256Z,98714.53
2022-08-11T23:43:41.519Z,98715.28
2022-08-11T23:46:27.718Z,98707.59
2022-08-11T23:49:20.438Z,98695.75
2022-08-11T23:52:07.685Z,98702.63
2022-08-11T23:54:54.166Z,98689.72
2022-08-11T23:57:47.664Z,98707.00
